METAR Data
IDs: Format: Raw Decoded Include TAF

Data at: 0951 UTC 28 Jul 2021

METAR for:KHCR (Heber City Muni, UT, US)
Text:KHCR 280935Z AUTO 00000KT 10SM CLR 15/10 A3025 RMK AO2
Temperature: 15.0°C ( 59°F)
Dewpoint: 10.0°C ( 50°F) [RH = 72%]
Pressure (altimeter):30.25 inches Hg (1024.5 mb)
Winds:calm
Visibility:10 or more sm (16+ km)
Ceiling:at least 12,000 feet AGL
Clouds:sky clear below 12,000 feet AGL
QC Flag:automated observation with no human augmentation